sensor_id;sensor_type;location;lat;lon;timestamp;P1;durP1;ratioP1;P2;durP2;ratioP2
40453;SDS011;26160;51.858;4.398;2023-07-31T00:01:13;37.10;;;10.45;;
40453;SDS011;26160;51.858;4.398;2023-07-31T00:03:40;31.80;;;10.45;;
40453;SDS011;26160;51.858;4.398;2023-07-31T00:06:06;50.83;;;12.02;;
40453;SDS011;26160;51.858;4.398;2023-07-31T00:08:32;44.88;;;11.60;;
40453;SDS011;26160;51.858;4.398;2023-07-31T00:10:58;58.97;;;12.70;;
40453;SDS011;26160;51.858;4.398;2023-07-31T00:13:24;43.22;;;11.32;;
40453;SDS011;26160;51.858;4.398;2023-07-31T00:15:50;54.95;;;12.75;;
40453;SDS011;26160;51.858;4.398;2023-07-31T00:18:16;44.00;;;12.18;;
40453;SDS011;26160;51.858;4.398;2023-07-31T00:20:43;47.22;;;13.10;;
40453;SDS011;26160;51.858;4.398;2023-07-31T00:23:09;46.53;;;12.48;;
40453;SDS011;26160;51.858;4.398;2023-07-31T00:25:35;52.65;;;12.70;;
40453;SDS011;26160;51.858;4.398;2023-07-31T00:28:01;52.47;;;13.55;;
40453;SDS011;26160;51.858;4.398;2023-07-31T00:30:27;44.30;;;12.88;;
40453;SDS011;26160;51.858;4.398;2023-07-31T00:32:54;57.97;;;12.65;;
40453;SDS011;26160;51.858;4.398;2023-07-31T00:35:20;45.72;;;14.15;;
40453;SDS011;26160;51.858;4.398;2023-07-31T00:37:46;46.25;;;11.98;;
40453;SDS011;26160;51.858;4.398;2023-07-31T00:40:12;29.58;;;9.40;;
40453;SDS011;26160;51.858;4.398;2023-07-31T00:42:39;32.63;;;9.80;;
40453;SDS011;26160;51.858;4.398;2023-07-31T00:45:07;30.45;;;9.82;;
40453;SDS011;26160;51.858;4.398;2023-07-31T00:47:33;26.15;;;9.13;;
40453;SDS011;26160;51.858;4.398;2023-07-31T00:49:59;24.30;;;7.78;;
40453;SDS011;26160;51.858;4.398;2023-07-31T00:52:25;21.23;;;7.35;;
40453;SDS011;26160;51.858;4.398;2023-07-31T00:54:52;20.92;;;6.15;;
40453;SDS011;26160;51.858;4.398;2023-07-31T00:57:19;19.73;;;7.07;;
40453;SDS011;26160;51.858;4.398;2023-07-31T00:59:45;24.73;;;7.47;;
40453;SDS011;26160;51.858;4.398;2023-07-31T01:02:12;36.25;;;9.82;;
40453;SDS011;26160;51.858;4.398;2023-07-31T01:04:38;31.17;;;10.15;;
40453;SDS011;26160;51.858;4.398;2023-07-31T01:07:11;36.95;;;9.98;;
40453;SDS011;26160;51.858;4.398;2023-07-31T01:10:04;43.83;;;12.52;;
40453;SDS011;26160;51.858;4.398;2023-07-31T01:12:36;43.70;;;12.13;;
40453;SDS011;26160;51.858;4.398;2023-07-31T01:17:30;38.42;;;11.07;;
40453;SDS011;26160;51.858;4.398;2023-07-31T01:19:58;51.08;;;11.30;;
40453;SDS011;26160;51.858;4.398;2023-07-31T01:27:50;37.85;;;10.85;;
40453;SDS011;26160;51.858;4.398;2023-07-31T01:30:25;43.63;;;10.88;;
40453;SDS011;26160;51.858;4.398;2023-07-31T01:32:59;42.58;;;10.90;;
40453;SDS011;26160;51.858;4.398;2023-07-31T01:35:28;39.10;;;10.80;;
40453;SDS011;26160;51.858;4.398;2023-07-31T01:37:54;34.78;;;10.60;;
40453;SDS011;26160;51.858;4.398;2023-07-31T01:40:20;43.85;;;12.52;;
40453;SDS011;26160;51.858;4.398;2023-07-31T01:42:46;49.70;;;11.60;;
40453;SDS011;26160;51.858;4.398;2023-07-31T01:45:13;40.83;;;12.65;;
40453;SDS011;26160;51.858;4.398;2023-07-31T01:47:39;50.22;;;12.60;;
40453;SDS011;26160;51.858;4.398;2023-07-31T01:50:05;43.58;;;11.85;;
40453;SDS011;26160;51.858;4.398;2023-07-31T01:52:31;46.80;;;12.98;;
40453;SDS011;26160;51.858;4.398;2023-07-31T01:54:57;46.15;;;12.45;;
40453;SDS011;26160;51.858;4.398;2023-07-31T01:57:24;47.35;;;12.45;;
40453;SDS011;26160;51.858;4.398;2023-07-31T01:59:50;44.60;;;12.20;;
40453;SDS011;26160;51.858;4.398;2023-07-31T02:02:19;39.15;;;11.32;;
40453;SDS011;26160;51.858;4.398;2023-07-31T02:04:45;47.90;;;12.27;;
40453;SDS011;26160;51.858;4.398;2023-07-31T02:07:11;46.13;;;12.48;;
40453;SDS011;26160;51.858;4.398;2023-07-31T02:09:37;48.67;;;11.95;;
40453;SDS011;26160;51.858;4.398;2023-07-31T02:12:06;37.00;;;10.43;;
40453;SDS011;26160;51.858;4.398;2023-07-31T02:14:34;40.97;;;11.32;;
40453;SDS011;26160;51.858;4.398;2023-07-31T02:17:00;36.50;;;11.10;;
40453;SDS011;26160;51.858;4.398;2023-07-31T02:19:26;38.38;;;10.05;;
40453;SDS011;26160;51.858;4.398;2023-07-31T02:21:53;35.53;;;10.23;;
40453;SDS011;26160;51.858;4.398;2023-07-31T02:24:19;32.65;;;9.77;;
40453;SDS011;26160;51.858;4.398;2023-07-31T02:26:45;40.30;;;9.57;;
40453;SDS011;26160;51.858;4.398;2023-07-31T02:29:11;28.85;;;9.40;;
40453;SDS011;26160;51.858;4.398;2023-07-31T02:31:37;33.33;;;9.07;;
40453;SDS011;26160;51.858;4.398;2023-07-31T02:34:03;34.95;;;9.30;;
40453;SDS011;26160;51.858;4.398;2023-07-31T02:36:30;38.53;;;9.18;;
40453;SDS011;26160;51.858;4.398;2023-07-31T02:38:56;40.95;;;10.65;;
40453;SDS011;26160;51.858;4.398;2023-07-31T02:41:22;36.35;;;9.50;;
40453;SDS011;26160;51.858;4.398;2023-07-31T02:43:48;33.05;;;10.32;;
40453;SDS011;26160;51.858;4.398;2023-07-31T02:46:14;32.13;;;9.57;;
40453;SDS011;26160;51.858;4.398;2023-07-31T02:48:40;37.63;;;9.65;;
40453;SDS011;26160;51.858;4.398;2023-07-31T02:51:06;37.58;;;9.95;;
40453;SDS011;26160;51.858;4.398;2023-07-31T02:53:32;31.17;;;9.68;;
40453;SDS011;26160;51.858;4.398;2023-07-31T02:55:59;33.25;;;9.13;;
40453;SDS011;26160;51.858;4.398;2023-07-31T02:58:25;32.17;;;9.43;;
40453;SDS011;26160;51.858;4.398;2023-07-31T03:00:51;34.63;;;9.30;;
40453;SDS011;26160;51.858;4.398;2023-07-31T03:03:17;34.75;;;9.48;;
40453;SDS011;26160;51.858;4.398;2023-07-31T03:05:43;34.67;;;9.50;;
40453;SDS011;26160;51.858;4.398;2023-07-31T03:08:09;32.13;;;10.57;;
40453;SDS011;26160;51.858;4.398;2023-07-31T03:10:35;36.33;;;9.27;;
40453;SDS011;26160;51.858;4.398;2023-07-31T03:13:01;33.17;;;9.10;;
40453;SDS011;26160;51.858;4.398;2023-07-31T03:15:28;31.77;;;11.10;;
40453;SDS011;26160;51.858;4.398;2023-07-31T03:17:54;35.78;;;10.10;;
40453;SDS011;26160;51.858;4.398;2023-07-31T03:20:20;28.25;;;9.77;;
40453;SDS011;26160;51.858;4.398;2023-07-31T03:22:46;31.20;;;10.00;;
40453;SDS011;26160;51.858;4.398;2023-07-31T03:25:12;30.40;;;9.52;;
40453;SDS011;26160;51.858;4.398;2023-07-31T03:27:39;35.38;;;10.27;;
40453;SDS011;26160;51.858;4.398;2023-07-31T03:30:06;28.92;;;10.75;;
40453;SDS011;26160;51.858;4.398;2023-07-31T03:32:32;31.73;;;9.73;;
40453;SDS011;26160;51.858;4.398;2023-07-31T03:34:58;31.02;;;9.75;;
40453;SDS011;26160;51.858;4.398;2023-07-31T03:37:25;32.90;;;10.57;;
40453;SDS011;26160;51.858;4.398;2023-07-31T03:39:51;32.75;;;10.02;;
40453;SDS011;26160;51.858;4.398;2023-07-31T03:42:18;24.20;;;9.48;;
40453;SDS011;26160;51.858;4.398;2023-07-31T03:44:44;24.48;;;9.18;;
40453;SDS011;26160;51.858;4.398;2023-07-31T03:47:10;33.78;;;10.18;;
40453;SDS011;26160;51.858;4.398;2023-07-31T03:49:36;25.15;;;9.45;;
40453;SDS011;26160;51.858;4.398;2023-07-31T03:52:02;24.60;;;9.43;;
40453;SDS011;26160;51.858;4.398;2023-07-31T03:54:29;24.52;;;9.77;;
40453;SDS011;26160;51.858;4.398;2023-07-31T03:56:55;26.25;;;9.18;;
40453;SDS011;26160;51.858;4.398;2023-07-31T03:59:21;24.33;;;9.65;;
40453;SDS011;26160;51.858;4.398;2023-07-31T04:01:47;23.50;;;9.20;;
40453;SDS011;26160;51.858;4.398;2023-07-31T04:04:13;21.33;;;8.40;;
40453;SDS011;26160;51.858;4.398;2023-07-31T04:06:39;25.92;;;9.00;;
40453;SDS011;26160;51.858;4.398;2023-07-31T04:09:05;22.67;;;8.85;;
40453;SDS011;26160;51.858;4.398;2023-07-31T04:11:32;21.08;;;8.52;;
40453;SDS011;26160;51.858;4.398;2023-07-31T04:13:58;21.00;;;8.57;;
40453;SDS011;26160;51.858;4.398;2023-07-31T04:16:24;18.70;;;8.38;;
40453;SDS011;26160;51.858;4.398;2023-07-31T04:18:50;25.88;;;9.52;;
40453;SDS011;26160;51.858;4.398;2023-07-31T04:21:16;22.45;;;8.63;;
40453;SDS011;26160;51.858;4.398;2023-07-31T04:23:43;19.20;;;8.43;;
40453;SDS011;26160;51.858;4.398;2023-07-31T04:26:09;19.05;;;7.93;;
40453;SDS011;26160;51.858;4.398;2023-07-31T04:28:35;25.75;;;9.48;;
40453;SDS011;26160;51.858;4.398;2023-07-31T04:31:01;23.27;;;8.65;;
40453;SDS011;26160;51.858;4.398;2023-07-31T04:33:27;22.58;;;9.85;;
40453;SDS011;26160;51.858;4.398;2023-07-31T04:35:53;24.85;;;10.05;;
40453;SDS011;26160;51.858;4.398;2023-07-31T04:38:20;26.75;;;9.52;;
40453;SDS011;26160;51.858;4.398;2023-07-31T04:40:46;23.95;;;8.95;;
40453;SDS011;26160;51.858;4.398;2023-07-31T04:43:13;24.50;;;8.90;;
40453;SDS011;26160;51.858;4.398;2023-07-31T04:45:41;23.08;;;9.00;;
40453;SDS011;26160;51.858;4.398;2023-07-31T04:48:11;22.73;;;8.40;;
40453;SDS011;26160;51.858;4.398;2023-07-31T04:50:37;18.67;;;8.57;;
40453;SDS011;26160;51.858;4.398;2023-07-31T04:53:03;18.50;;;8.18;;
40453;SDS011;26160;51.858;4.398;2023-07-31T04:55:29;18.20;;;7.97;;
40453;SDS011;26160;51.858;4.398;2023-07-31T04:57:55;19.30;;;7.40;;
40453;SDS011;26160;51.858;4.398;2023-07-31T05:00:21;21.42;;;7.80;;
40453;SDS011;26160;51.858;4.398;2023-07-31T05:02:47;19.45;;;7.40;;
40453;SDS011;26160;51.858;4.398;2023-07-31T05:05:13;17.90;;;7.07;;
40453;SDS011;26160;51.858;4.398;2023-07-31T05:07:40;15.68;;;6.75;;
40453;SDS011;26160;51.858;4.398;2023-07-31T05:10:06;13.38;;;6.90;;
40453;SDS011;26160;51.858;4.398;2023-07-31T05:12:33;17.45;;;6.70;;
40453;SDS011;26160;51.858;4.398;2023-07-31T05:14:59;15.23;;;7.00;;
40453;SDS011;26160;51.858;4.398;2023-07-31T05:17:25;14.65;;;6.38;;
40453;SDS011;26160;51.858;4.398;2023-07-31T05:19:51;19.77;;;6.95;;
40453;SDS011;26160;51.858;4.398;2023-07-31T05:22:17;16.45;;;6.95;;
40453;SDS011;26160;51.858;4.398;2023-07-31T05:24:43;16.13;;;6.72;;
40453;SDS011;26160;51.858;4.398;2023-07-31T05:27:10;16.75;;;6.00;;
40453;SDS011;26160;51.858;4.398;2023-07-31T05:29:36;16.77;;;6.10;;
40453;SDS011;26160;51.858;4.398;2023-07-31T05:32:02;20.35;;;6.53;;
40453;SDS011;26160;51.858;4.398;2023-07-31T05:34:28;16.27;;;6.88;;
40453;SDS011;26160;51.858;4.398;2023-07-31T05:36:55;17.20;;;6.82;;
40453;SDS011;26160;51.858;4.398;2023-07-31T05:39:21;11.98;;;6.22;;
40453;SDS011;26160;51.858;4.398;2023-07-31T05:41:47;18.25;;;7.05;;
40453;SDS011;26160;51.858;4.398;2023-07-31T05:44:13;14.43;;;5.90;;
40453;SDS011;26160;51.858;4.398;2023-07-31T05:46:39;15.40;;;6.45;;
40453;SDS011;26160;51.858;4.398;2023-07-31T05:49:05;12.95;;;5.88;;
40453;SDS011;26160;51.858;4.398;2023-07-31T05:51:32;18.60;;;6.20;;
40453;SDS011;26160;51.858;4.398;2023-07-31T05:53:58;16.30;;;7.53;;
40453;SDS011;26160;51.858;4.398;2023-07-31T05:56:24;9.50;;;6.07;;
40453;SDS011;26160;51.858;4.398;2023-07-31T05:58:52;12.80;;;5.30;;
40453;SDS011;26160;51.858;4.398;2023-07-31T06:01:18;17.52;;;6.25;;
40453;SDS011;26160;51.858;4.398;2023-07-31T06:03:46;16.17;;;5.15;;
40453;SDS011;26160;51.858;4.398;2023-07-31T06:06:12;12.15;;;5.38;;
40453;SDS011;26160;51.858;4.398;2023-07-31T06:08:39;15.18;;;6.32;;
40453;SDS011;26160;51.858;4.398;2023-07-31T06:11:05;15.50;;;6.32;;
40453;SDS011;26160;51.858;4.398;2023-07-31T06:13:34;9.45;;;5.07;;
40453;SDS011;26160;51.858;4.398;2023-07-31T06:16:00;12.48;;;6.20;;
40453;SDS011;26160;51.858;4.398;2023-07-31T06:18:31;7.50;;;4.90;;
40453;SDS011;26160;51.858;4.398;2023-07-31T06:20:58;9.57;;;5.28;;
40453;SDS011;26160;51.858;4.398;2023-07-31T06:23:24;14.70;;;6.18;;
40453;SDS011;26160;51.858;4.398;2023-07-31T06:25:50;6.78;;;4.63;;
40453;SDS011;26160;51.858;4.398;2023-07-31T06:28:17;10.10;;;5.40;;
40453;SDS011;26160;51.858;4.398;2023-07-31T06:30:43;10.10;;;5.72;;
40453;SDS011;26160;51.858;4.398;2023-07-31T06:33:09;10.57;;;5.95;;
40453;SDS011;26160;51.858;4.398;2023-07-31T06:35:35;12.63;;;5.18;;
40453;SDS011;26160;51.858;4.398;2023-07-31T06:38:01;13.57;;;6.35;;
40453;SDS011;26160;51.858;4.398;2023-07-31T06:40:28;8.52;;;5.20;;
40453;SDS011;26160;51.858;4.398;2023-07-31T06:42:55;9.90;;;5.28;;
40453;SDS011;26160;51.858;4.398;2023-07-31T06:45:21;9.73;;;4.88;;
40453;SDS011;26160;51.858;4.398;2023-07-31T06:47:47;6.88;;;5.07;;
40453;SDS011;26160;51.858;4.398;2023-07-31T06:50:13;6.55;;;4.95;;
40453;SDS011;26160;51.858;4.398;2023-07-31T06:52:39;8.90;;;5.45;;
40453;SDS011;26160;51.858;4.398;2023-07-31T06:55:21;6.22;;;4.20;;
40453;SDS011;26160;51.858;4.398;2023-07-31T06:57:47;9.55;;;4.85;;
40453;SDS011;26160;51.858;4.398;2023-07-31T07:00:18;9.40;;;5.18;;
40453;SDS011;26160;51.858;4.398;2023-07-31T07:02:45;3.72;;;3.30;;
40453;SDS011;26160;51.858;4.398;2023-07-31T07:05:14;5.95;;;3.83;;
40453;SDS011;26160;51.858;4.398;2023-07-31T07:07:41;7.82;;;3.20;;
40453;SDS011;26160;51.858;4.398;2023-07-31T07:10:08;5.45;;;3.08;;
40453;SDS011;26160;51.858;4.398;2023-07-31T07:12:35;4.82;;;3.20;;
40453;SDS011;26160;51.858;4.398;2023-07-31T07:15:01;6.18;;;3.30;;
40453;SDS011;26160;51.858;4.398;2023-07-31T07:17:28;4.75;;;2.70;;
40453;SDS011;26160;51.858;4.398;2023-07-31T07:19:58;3.97;;;2.70;;
40453;SDS011;26160;51.858;4.398;2023-07-31T07:22:25;4.85;;;2.78;;
40453;SDS011;26160;51.858;4.398;2023-07-31T07:24:52;7.82;;;2.85;;
40453;SDS011;26160;51.858;4.398;2023-07-31T07:27:19;4.22;;;2.38;;
40453;SDS011;26160;51.858;4.398;2023-07-31T07:29:45;6.57;;;2.83;;
40453;SDS011;26160;51.858;4.398;2023-07-31T07:32:12;3.22;;;2.30;;
40453;SDS011;26160;51.858;4.398;2023-07-31T07:34:38;4.78;;;2.65;;
40453;SDS011;26160;51.858;4.398;2023-07-31T07:37:04;5.38;;;2.53;;
40453;SDS011;26160;51.858;4.398;2023-07-31T07:39:31;5.57;;;2.00;;
40453;SDS011;26160;51.858;4.398;2023-07-31T07:41:57;3.00;;;2.00;;
40453;SDS011;26160;51.858;4.398;2023-07-31T07:44:23;3.03;;;1.98;;
40453;SDS011;26160;51.858;4.398;2023-07-31T07:46:50;5.90;;;2.10;;
40453;SDS011;26160;51.858;4.398;2023-07-31T07:49:16;3.17;;;1.70;;
40453;SDS011;26160;51.858;4.398;2023-07-31T07:51:42;3.42;;;2.10;;
40453;SDS011;26160;51.858;4.398;2023-07-31T07:54:08;3.40;;;1.75;;
40453;SDS011;26160;51.858;4.398;2023-07-31T07:56:34;3.75;;;1.60;;
40453;SDS011;26160;51.858;4.398;2023-07-31T07:59:01;4.43;;;1.80;;
40453;SDS011;26160;51.858;4.398;2023-07-31T08:01:27;3.33;;;1.63;;
40453;SDS011;26160;51.858;4.398;2023-07-31T08:03:54;3.97;;;1.85;;
40453;SDS011;26160;51.858;4.398;2023-07-31T08:06:20;2.65;;;1.20;;
40453;SDS011;26160;51.858;4.398;2023-07-31T08:08:48;3.33;;;1.75;;
40453;SDS011;26160;51.858;4.398;2023-07-31T08:11:14;4.20;;;1.83;;
40453;SDS011;26160;51.858;4.398;2023-07-31T08:13:40;3.05;;;2.00;;
40453;SDS011;26160;51.858;4.398;2023-07-31T08:16:06;1.75;;;1.38;;
40453;SDS011;26160;51.858;4.398;2023-07-31T08:18:32;2.78;;;1.90;;
40453;SDS011;26160;51.858;4.398;2023-07-31T08:20:59;3.40;;;1.63;;
40453;SDS011;26160;51.858;4.398;2023-07-31T08:23:26;4.97;;;1.50;;
40453;SDS011;26160;51.858;4.398;2023-07-31T08:25:55;3.42;;;1.70;;
40453;SDS011;26160;51.858;4.398;2023-07-31T08:28:22;2.45;;;1.35;;
40453;SDS011;26160;51.858;4.398;2023-07-31T08:30:48;2.25;;;1.67;;
40453;SDS011;26160;51.858;4.398;2023-07-31T08:33:15;2.88;;;1.80;;
40453;SDS011;26160;51.858;4.398;2023-07-31T08:35:42;5.50;;;1.90;;
40453;SDS011;26160;51.858;4.398;2023-07-31T08:38:08;4.07;;;1.58;;
40453;SDS011;26160;51.858;4.398;2023-07-31T08:40:37;2.55;;;1.73;;
40453;SDS011;26160;51.858;4.398;2023-07-31T08:43:06;1.95;;;1.73;;
40453;SDS011;26160;51.858;4.398;2023-07-31T08:45:34;3.00;;;1.70;;
40453;SDS011;26160;51.858;4.398;2023-07-31T08:48:00;2.83;;;1.98;;
40453;SDS011;26160;51.858;4.398;2023-07-31T08:50:26;4.50;;;2.13;;
40453;SDS011;26160;51.858;4.398;2023-07-31T08:52:53;2.80;;;2.28;;
40453;SDS011;26160;51.858;4.398;2023-07-31T08:55:20;3.33;;;2.83;;
40453;SDS011;26160;51.858;4.398;2023-07-31T08:57:50;3.42;;;2.40;;
40453;SDS011;26160;51.858;4.398;2023-07-31T09:00:20;6.57;;;2.60;;
40453;SDS011;26160;51.858;4.398;2023-07-31T09:03:32;4.97;;;2.60;;
40453;SDS011;26160;51.858;4.398;2023-07-31T09:05:41;8.20;;;3.30;;
40453;SDS011;26160;51.858;4.398;2023-07-31T09:08:12;4.82;;;2.78;;
40453;SDS011;26160;51.858;4.398;2023-07-31T09:10:43;3.05;;;2.72;;
40453;SDS011;26160;51.858;4.398;2023-07-31T09:13:15;3.80;;;2.95;;
40453;SDS011;26160;51.858;4.398;2023-07-31T09:15:44;6.45;;;3.17;;
40453;SDS011;26160;51.858;4.398;2023-07-31T09:18:12;3.65;;;2.97;;
40453;SDS011;26160;51.858;4.398;2023-07-31T09:20:39;5.10;;;2.78;;
40453;SDS011;26160;51.858;4.398;2023-07-31T09:25:35;4.55;;;3.03;;
40453;SDS011;26160;51.858;4.398;2023-07-31T09:28:03;5.15;;;3.10;;
40453;SDS011;26160;51.858;4.398;2023-07-31T09:30:30;4.90;;;3.00;;
40453;SDS011;26160;51.858;4.398;2023-07-31T09:33:09;4.28;;;3.25;;
40453;SDS011;26160;51.858;4.398;2023-07-31T09:35:35;4.97;;;3.00;;
40453;SDS011;26160;51.858;4.398;2023-07-31T09:38:09;5.35;;;3.38;;
40453;SDS011;26160;51.858;4.398;2023-07-31T09:40:37;3.00;;;2.70;;
40453;SDS011;26160;51.858;4.398;2023-07-31T09:43:06;5.10;;;2.88;;
40453;SDS011;26160;51.858;4.398;2023-07-31T09:45:34;3.78;;;2.60;;
40453;SDS011;26160;51.858;4.398;2023-07-31T09:48:09;4.03;;;2.47;;
40453;SDS011;26160;51.858;4.398;2023-07-31T09:50:37;5.30;;;2.95;;
40453;SDS011;26160;51.858;4.398;2023-07-31T09:53:07;3.45;;;2.60;;
40453;SDS011;26160;51.858;4.398;2023-07-31T09:55:34;2.95;;;2.42;;
40453;SDS011;26160;51.858;4.398;2023-07-31T09:58:05;4.03;;;2.80;;
40453;SDS011;26160;51.858;4.398;2023-07-31T10:00:33;4.15;;;2.25;;
40453;SDS011;26160;51.858;4.398;2023-07-31T10:03:00;4.93;;;2.20;;
40453;SDS011;26160;51.858;4.398;2023-07-31T10:05:34;2.47;;;2.10;;
40453;SDS011;26160;51.858;4.398;2023-07-31T10:08:06;3.53;;;2.47;;
40453;SDS011;26160;51.858;4.398;2023-07-31T10:10:33;2.83;;;2.53;;
40453;SDS011;26160;51.858;4.398;2023-07-31T10:13:01;4.15;;;2.42;;
40453;SDS011;26160;51.858;4.398;2023-07-31T10:15:29;5.22;;;2.70;;
40453;SDS011;26160;51.858;4.398;2023-07-31T10:17:57;5.13;;;3.45;;
40453;SDS011;26160;51.858;4.398;2023-07-31T10:20:24;7.75;;;3.55;;
40453;SDS011;26160;51.858;4.398;2023-07-31T10:22:54;8.27;;;4.20;;
40453;SDS011;26160;51.858;4.398;2023-07-31T10:25:20;6.55;;;3.20;;
40453;SDS011;26160;51.858;4.398;2023-07-31T10:27:47;6.22;;;4.13;;
40453;SDS011;26160;51.858;4.398;2023-07-31T10:30:17;10.48;;;4.68;;
40453;SDS011;26160;51.858;4.398;2023-07-31T10:32:45;9.82;;;4.40;;
40453;SDS011;26160;51.858;4.398;2023-07-31T10:35:16;9.75;;;4.60;;
40453;SDS011;26160;51.858;4.398;2023-07-31T10:37:43;10.45;;;5.18;;
40453;SDS011;26160;51.858;4.398;2023-07-31T10:40:15;8.73;;;5.28;;
40453;SDS011;26160;51.858;4.398;2023-07-31T10:42:52;9.35;;;6.30;;
40453;SDS011;26160;51.858;4.398;2023-07-31T10:47:59;9.75;;;7.68;;
40453;SDS011;26160;51.858;4.398;2023-07-31T10:50:30;11.05;;;7.85;;
40453;SDS011;26160;51.858;4.398;2023-07-31T10:53:00;15.05;;;8.85;;
40453;SDS011;26160;51.858;4.398;2023-07-31T10:58:06;10.57;;;8.15;;
40453;SDS011;26160;51.858;4.398;2023-07-31T11:00:34;11.68;;;7.47;;
40453;SDS011;26160;51.858;4.398;2023-07-31T11:03:13;12.70;;;8.70;;
40453;SDS011;26160;51.858;4.398;2023-07-31T11:06:29;11.80;;;7.90;;
40453;SDS011;26160;51.858;4.398;2023-07-31T11:08:31;14.43;;;7.70;;
40453;SDS011;26160;51.858;4.398;2023-07-31T11:13:31;9.60;;;6.63;;
40453;SDS011;26160;51.858;4.398;2023-07-31T11:16:08;8.77;;;6.55;;
40453;SDS011;26160;51.858;4.398;2023-07-31T11:18:35;10.70;;;6.85;;
40453;SDS011;26160;51.858;4.398;2023-07-31T11:21:03;8.25;;;6.30;;
40453;SDS011;26160;51.858;4.398;2023-07-31T11:23:30;8.73;;;6.15;;
40453;SDS011;26160;51.858;4.398;2023-07-31T11:25:59;11.75;;;7.03;;
40453;SDS011;26160;51.858;4.398;2023-07-31T11:28:26;8.55;;;5.63;;
40453;SDS011;26160;51.858;4.398;2023-07-31T11:30:56;8.52;;;5.60;;
40453;SDS011;26160;51.858;4.398;2023-07-31T11:33:22;11.18;;;4.82;;
40453;SDS011;26160;51.858;4.398;2023-07-31T11:35:48;8.52;;;4.85;;
40453;SDS011;26160;51.858;4.398;2023-07-31T11:38:27;5.35;;;4.30;;
40453;SDS011;26160;51.858;4.398;2023-07-31T11:40:56;6.50;;;4.70;;
40453;SDS011;26160;51.858;4.398;2023-07-31T11:45:57;9.00;;;4.28;;
40453;SDS011;26160;51.858;4.398;2023-07-31T11:48:26;7.38;;;3.85;;
40453;SDS011;26160;51.858;4.398;2023-07-31T11:50:57;4.75;;;3.80;;
40453;SDS011;26160;51.858;4.398;2023-07-31T11:53:29;5.22;;;3.53;;
40453;SDS011;26160;51.858;4.398;2023-07-31T11:56:06;8.05;;;4.22;;
40453;SDS011;26160;51.858;4.398;2023-07-31T11:58:34;3.30;;;2.95;;
40453;SDS011;26160;51.858;4.398;2023-07-31T12:01:01;5.20;;;3.30;;
40453;SDS011;26160;51.858;4.398;2023-07-31T12:03:28;5.15;;;3.70;;
40453;SDS011;26160;51.858;4.398;2023-07-31T12:05:55;7.32;;;3.38;;
40453;SDS011;26160;51.858;4.398;2023-07-31T12:08:25;4.57;;;3.22;;
40453;SDS011;26160;51.858;4.398;2023-07-31T12:10:52;6.40;;;3.47;;
40453;SDS011;26160;51.858;4.398;2023-07-31T12:13:23;7.20;;;3.80;;
40453;SDS011;26160;51.858;4.398;2023-07-31T12:15:53;5.78;;;3.70;;
40453;SDS011;26160;51.858;4.398;2023-07-31T12:18:21;7.82;;;3.38;;
40453;SDS011;26160;51.858;4.398;2023-07-31T12:20:58;5.22;;;3.80;;
40453;SDS011;26160;51.858;4.398;2023-07-31T12:23:29;4.72;;;3.05;;
40453;SDS011;26160;51.858;4.398;2023-07-31T12:26:03;6.50;;;3.70;;
40453;SDS011;26160;51.858;4.398;2023-07-31T12:28:46;7.25;;;3.20;;
40453;SDS011;26160;51.858;4.398;2023-07-31T12:31:14;2.25;;;2.03;;
40453;SDS011;26160;51.858;4.398;2023-07-31T12:33:45;2.55;;;2.00;;
40453;SDS011;26160;51.858;4.398;2023-07-31T12:36:13;2.55;;;1.95;;
40453;SDS011;26160;51.858;4.398;2023-07-31T12:38:41;1.58;;;1.33;;
40453;SDS011;26160;51.858;4.398;2023-07-31T12:41:08;3.08;;;2.00;;
40453;SDS011;26160;51.858;4.398;2023-07-31T12:43:34;2.78;;;1.80;;
40453;SDS011;26160;51.858;4.398;2023-07-31T12:46:04;2.50;;;2.00;;
40453;SDS011;26160;51.858;4.398;2023-07-31T12:48:33;2.85;;;2.13;;
40453;SDS011;26160;51.858;4.398;2023-07-31T12:50:59;3.30;;;2.25;;
40453;SDS011;26160;51.858;4.398;2023-07-31T12:53:26;2.72;;;2.20;;
40453;SDS011;26160;51.858;4.398;2023-07-31T12:55:53;6.70;;;2.75;;
40453;SDS011;26160;51.858;4.398;2023-07-31T12:58:20;2.25;;;2.05;;
40453;SDS011;26160;51.858;4.398;2023-07-31T13:00:46;3.03;;;2.00;;
40453;SDS011;26160;51.858;4.398;2023-07-31T13:03:12;2.63;;;2.28;;
40453;SDS011;26160;51.858;4.398;2023-07-31T13:05:38;4.22;;;2.58;;
40453;SDS011;26160;51.858;4.398;2023-07-31T13:08:04;5.47;;;2.75;;
40453;SDS011;26160;51.858;4.398;2023-07-31T13:10:30;2.97;;;2.78;;
40453;SDS011;26160;51.858;4.398;2023-07-31T13:12:56;4.40;;;3.60;;
40453;SDS011;26160;51.858;4.398;2023-07-31T13:15:23;4.80;;;4.50;;
40453;SDS011;26160;51.858;4.398;2023-07-31T13:17:49;4.28;;;3.97;;
40453;SDS011;26160;51.858;4.398;2023-07-31T13:20:15;3.70;;;3.30;;
40453;SDS011;26160;51.858;4.398;2023-07-31T13:22:41;3.83;;;3.42;;
40453;SDS011;26160;51.858;4.398;2023-07-31T13:25:07;3.03;;;2.70;;
40453;SDS011;26160;51.858;4.398;2023-07-31T13:27:34;3.50;;;2.20;;
40453;SDS011;26160;51.858;4.398;2023-07-31T13:30:01;4.57;;;2.10;;
40453;SDS011;26160;51.858;4.398;2023-07-31T13:32:27;4.55;;;2.17;;
40453;SDS011;26160;51.858;4.398;2023-07-31T13:34:53;2.50;;;2.13;;
40453;SDS011;26160;51.858;4.398;2023-07-31T13:37:20;2.67;;;2.03;;
40453;SDS011;26160;51.858;4.398;2023-07-31T13:39:46;2.17;;;1.98;;
40453;SDS011;26160;51.858;4.398;2023-07-31T13:42:12;2.13;;;1.90;;
40453;SDS011;26160;51.858;4.398;2023-07-31T13:44:38;1.98;;;1.73;;
40453;SDS011;26160;51.858;4.398;2023-07-31T13:47:05;3.55;;;2.00;;
40453;SDS011;26160;51.858;4.398;2023-07-31T13:49:32;4.45;;;2.63;;
40453;SDS011;26160;51.858;4.398;2023-07-31T13:51:59;4.38;;;2.47;;
40453;SDS011;26160;51.858;4.398;2023-07-31T13:54:25;4.45;;;3.08;;
40453;SDS011;26160;51.858;4.398;2023-07-31T13:56:52;4.88;;;2.72;;
40453;SDS011;26160;51.858;4.398;2023-07-31T13:59:18;3.03;;;2.80;;
40453;SDS011;26160;51.858;4.398;2023-07-31T14:01:44;3.85;;;3.55;;
40453;SDS011;26160;51.858;4.398;2023-07-31T14:04:11;7.75;;;5.85;;
40453;SDS011;26160;51.858;4.398;2023-07-31T14:06:37;6.38;;;5.45;;
40453;SDS011;26160;51.858;4.398;2023-07-31T14:09:04;8.07;;;7.13;;
40453;SDS011;26160;51.858;4.398;2023-07-31T14:11:31;7.35;;;6.70;;
40453;SDS011;26160;51.858;4.398;2023-07-31T14:13:57;5.55;;;5.15;;
40453;SDS011;26160;51.858;4.398;2023-07-31T14:16:23;6.65;;;6.05;;
40453;SDS011;26160;51.858;4.398;2023-07-31T14:18:50;7.20;;;6.53;;
40453;SDS011;26160;51.858;4.398;2023-07-31T14:21:16;6.03;;;4.93;;
40453;SDS011;26160;51.858;4.398;2023-07-31T14:23:44;5.75;;;5.18;;
40453;SDS011;26160;51.858;4.398;2023-07-31T14:26:11;5.88;;;5.28;;
40453;SDS011;26160;51.858;4.398;2023-07-31T14:28:37;4.97;;;4.50;;
40453;SDS011;26160;51.858;4.398;2023-07-31T14:31:03;5.93;;;4.28;;
40453;SDS011;26160;51.858;4.398;2023-07-31T14:33:30;5.47;;;3.53;;
40453;SDS011;26160;51.858;4.398;2023-07-31T14:35:56;4.90;;;4.07;;
40453;SDS011;26160;51.858;4.398;2023-07-31T14:38:22;5.35;;;3.67;;
40453;SDS011;26160;51.858;4.398;2023-07-31T14:40:48;4.53;;;3.58;;
40453;SDS011;26160;51.858;4.398;2023-07-31T14:43:15;3.85;;;3.25;;
40453;SDS011;26160;51.858;4.398;2023-07-31T14:45:41;5.50;;;3.25;;
40453;SDS011;26160;51.858;4.398;2023-07-31T14:48:07;3.30;;;2.75;;
40453;SDS011;26160;51.858;4.398;2023-07-31T14:50:34;3.30;;;2.40;;
40453;SDS011;26160;51.858;4.398;2023-07-31T14:53:00;2.28;;;1.80;;
40453;SDS011;26160;51.858;4.398;2023-07-31T14:55:26;3.10;;;2.25;;
40453;SDS011;26160;51.858;4.398;2023-07-31T14:57:53;3.67;;;2.30;;
40453;SDS011;26160;51.858;4.398;2023-07-31T15:00:19;2.40;;;2.20;;
40453;SDS011;26160;51.858;4.398;2023-07-31T15:02:45;2.83;;;2.30;;